createdAt,value
2018-05-29T00:01:04.581Z,7.30
2018-05-29T00:03:32.709Z,7.32
2018-05-29T00:06:00.814Z,8.00
2018-05-29T00:08:28.954Z,7.93
2018-05-29T00:10:57.056Z,8.30
2018-05-29T00:13:25.236Z,8.17
2018-05-29T00:15:53.615Z,7.80
2018-05-29T00:18:21.743Z,7.00
2018-05-29T00:20:49.875Z,7.50
2018-05-29T00:23:17.978Z,7.47
2018-05-29T00:25:46.124Z,8.40
2018-05-29T00:28:14.235Z,8.00
2018-05-29T00:30:42.349Z,8.07
2018-05-29T00:33:10.461Z,7.07
2018-05-29T00:35:38.577Z,7.70
2018-05-29T00:38:06.712Z,8.13
2018-05-29T00:40:34.832Z,7.67
2018-05-29T00:43:02.939Z,8.80
2018-05-29T00:45:31.063Z,7.40
2018-05-29T00:47:59.225Z,8.47
2018-05-29T00:50:27.360Z,8.33
2018-05-29T00:52:55.469Z,8.27
2018-05-29T00:55:35.553Z,8.20
2018-05-29T00:58:03.741Z,8.40
2018-05-29T01:00:31.844Z,9.00
2018-05-29T01:03:00.012Z,9.60
2018-05-29T01:05:28.148Z,9.10
2018-05-29T01:07:56.296Z,9.50
2018-05-29T01:10:24.410Z,9.60
2018-05-29T01:12:52.579Z,9.73
2018-05-29T01:15:20.678Z,10.47
2018-05-29T01:17:48.792Z,9.50
2018-05-29T01:20:16.923Z,9.33
2018-05-29T01:22:45.042Z,9.03
2018-05-29T01:25:13.176Z,9.77
2018-05-29T01:27:41.325Z,9.90
2018-05-29T01:30:09.446Z,9.30
2018-05-29T01:32:37.565Z,9.57
2018-05-29T01:35:05.726Z,10.43
2018-05-29T01:37:33.833Z,10.93
2018-05-29T01:40:01.987Z,12.00
2018-05-29T01:42:30.090Z,11.10
2018-05-29T01:44:58.232Z,12.93
2018-05-29T01:47:26.362Z,11.80
2018-05-29T01:49:54.594Z,13.10
2018-05-29T01:52:22.728Z,15.43
2018-05-29T01:54:50.860Z,14.10
2018-05-29T01:57:19.016Z,15.23
2018-05-29T01:59:47.154Z,13.00
2018-05-29T02:02:15.301Z,13.53
2018-05-29T02:04:43.417Z,14.47
2018-05-29T02:07:11.558Z,13.33
2018-05-29T02:09:39.679Z,13.40
2018-05-29T02:12:07.782Z,12.50
2018-05-29T02:14:35.930Z,11.77
2018-05-29T02:17:04.056Z,11.40
2018-05-29T02:19:32.188Z,10.37
2018-05-29T02:22:00.322Z,11.43
2018-05-29T02:24:28.483Z,11.00
2018-05-29T02:26:56.570Z,10.90
2018-05-29T02:29:24.997Z,11.45
2018-05-29T02:31:53.102Z,10.17
2018-05-29T02:34:21.250Z,11.13
2018-05-29T02:36:49.366Z,10.83
2018-05-29T02:39:17.505Z,11.70
2018-05-29T02:41:45.632Z,11.60
2018-05-29T02:44:13.776Z,10.50
2018-05-29T02:46:41.914Z,10.80
2018-05-29T02:49:10.072Z,10.60
2018-05-29T02:51:38.216Z,11.10
2018-05-29T02:54:06.326Z,10.60
2018-05-29T02:56:34.462Z,11.30
2018-05-29T02:59:02.609Z,10.20
2018-05-29T03:01:30.745Z,10.60
2018-05-29T03:03:58.874Z,10.97
2018-05-29T03:06:27.006Z,11.10
2018-05-29T03:08:55.362Z,11.00
2018-05-29T03:11:23.490Z,10.67
2018-05-29T03:13:51.614Z,10.63
2018-05-29T03:16:19.752Z,11.37
2018-05-29T03:18:47.885Z,11.73
2018-05-29T03:21:16.041Z,12.37
2018-05-29T03:23:44.182Z,11.47
2018-05-29T03:26:12.315Z,10.70
2018-05-29T03:28:40.438Z,11.40
2018-05-29T03:31:08.589Z,11.70
2018-05-29T03:33:36.717Z,11.20
2018-05-29T03:36:04.853Z,11.03
2018-05-29T03:38:33.009Z,11.87
2018-05-29T03:41:01.141Z,10.40
2018-05-29T03:43:29.261Z,10.77
2018-05-29T03:45:57.376Z,10.30
2018-05-29T03:48:25.778Z,10.30
2018-05-29T03:50:53.884Z,11.00
2018-05-29T03:53:22.031Z,11.03
2018-05-29T03:55:50.162Z,11.87
2018-05-29T03:58:18.310Z,14.43
2018-05-29T04:00:46.485Z,13.20
2018-05-29T04:03:14.645Z,13.50
2018-05-29T04:05:42.759Z,13.03
2018-05-29T04:08:10.901Z,12.10
2018-05-29T04:10:39.019Z,11.03
2018-05-29T04:13:07.151Z,12.53
2018-05-29T04:15:35.285Z,11.93
2018-05-29T04:18:03.415Z,12.40
2018-05-29T04:20:31.541Z,12.13
2018-05-29T04:22:59.979Z,12.55
2018-05-29T04:25:28.239Z,11.37
2018-05-29T04:27:56.401Z,13.90
2018-05-29T04:30:24.556Z,13.33
2018-05-29T04:32:52.673Z,13.63
2018-05-29T04:35:20.794Z,13.03
2018-05-29T04:37:48.912Z,12.87
2018-05-29T04:40:17.033Z,12.97
2018-05-29T04:42:45.173Z,13.50
2018-05-29T04:45:13.295Z,13.70
2018-05-29T04:47:41.457Z,14.20
2018-05-29T04:50:09.586Z,13.87
2018-05-29T04:52:37.720Z,14.53
2018-05-29T04:55:05.843Z,14.40
2018-05-29T04:57:34.020Z,14.00
2018-05-29T05:00:02.123Z,14.60
2018-05-29T05:02:30.377Z,14.17
2018-05-29T05:04:58.454Z,12.90
2018-05-29T05:07:26.593Z,11.63
2018-05-29T05:09:54.713Z,11.63
2018-05-29T05:12:22.856Z,11.63
2018-05-29T05:14:50.985Z,12.23
2018-05-29T05:17:19.103Z,12.37
2018-05-29T05:19:47.232Z,11.60
2018-05-29T05:22:15.408Z,12.63
2018-05-29T05:24:43.541Z,13.65
2018-05-29T05:27:11.672Z,13.13
2018-05-29T05:29:39.813Z,12.70
2018-05-29T05:32:07.991Z,13.43
2018-05-29T05:34:36.101Z,13.40
2018-05-29T05:37:04.272Z,13.70
2018-05-29T05:39:32.381Z,13.70
2018-05-29T05:42:00.737Z,13.05
2018-05-29T05:44:28.874Z,11.93
2018-05-29T05:46:57.007Z,11.63
2018-05-29T05:49:25.153Z,10.40
2018-05-29T05:51:53.266Z,12.50
2018-05-29T05:54:21.411Z,12.17
2018-05-29T05:56:49.521Z,12.43
2018-05-29T05:59:17.691Z,11.07
2018-05-29T06:01:45.885Z,11.03
2018-05-29T06:04:13.999Z,10.90
2018-05-29T06:06:42.123Z,11.37
2018-05-29T06:09:10.269Z,10.10
2018-05-29T06:11:38.401Z,9.93
2018-05-29T06:14:06.518Z,8.70
2018-05-29T06:16:34.656Z,8.90
2018-05-29T06:19:02.783Z,9.03
2018-05-29T06:21:31.131Z,8.07
2018-05-29T06:23:59.249Z,7.50
2018-05-29T06:26:27.411Z,6.00
2018-05-29T06:28:55.521Z,6.70
2018-05-29T06:31:23.625Z,6.30
2018-05-29T06:33:51.745Z,6.00
2018-05-29T06:36:19.854Z,7.33
2018-05-29T06:38:47.983Z,6.87
2018-05-29T06:41:16.091Z,7.40
2018-05-29T06:43:44.271Z,8.43
2018-05-29T06:46:12.383Z,8.13
2018-05-29T06:48:40.526Z,7.90
2018-05-29T06:51:08.658Z,9.20
2018-05-29T06:53:37.619Z,8.10
2018-05-29T06:56:05.748Z,8.83
2018-05-29T06:58:33.870Z,10.07
2018-05-29T07:01:01.994Z,9.90
2018-05-29T07:03:30.214Z,8.87
2018-05-29T07:05:58.354Z,9.53
2018-05-29T07:08:26.466Z,10.67
2018-05-29T07:10:54.596Z,10.53
2018-05-29T07:13:22.718Z,9.90
2018-05-29T07:15:50.826Z,10.67
2018-05-29T07:18:18.972Z,11.07
2018-05-29T07:20:47.088Z,10.73
2018-05-29T07:23:15.226Z,11.03
2018-05-29T07:25:43.382Z,10.80
2018-05-29T07:28:11.527Z,10.50
2018-05-29T07:30:39.642Z,9.60
2018-05-29T07:33:07.787Z,9.90
2018-05-29T07:35:35.949Z,10.30
2018-05-29T07:38:04.066Z,10.60
2018-05-29T07:40:32.240Z,10.37
2018-05-29T07:43:00.330Z,9.97
2018-05-29T07:45:28.468Z,9.70
2018-05-29T07:47:56.592Z,9.40
2018-05-29T07:50:24.743Z,10.20
2018-05-29T07:52:52.842Z,9.03
2018-05-29T07:55:21.028Z,8.77
2018-05-29T07:57:49.150Z,8.10
2018-05-29T08:00:17.256Z,7.97
2018-05-29T08:02:45.390Z,8.03
2018-05-29T08:05:13.520Z,6.87
2018-05-29T08:07:41.646Z,6.73
2018-05-29T08:10:09.769Z,5.40
2018-05-29T08:12:38.027Z,5.40
2018-05-29T08:15:06.140Z,6.10
2018-05-29T08:17:34.246Z,6.00
2018-05-29T08:20:02.384Z,5.83
2018-05-29T08:22:30.503Z,5.87
2018-05-29T08:24:58.626Z,5.80
2018-05-29T08:27:26.756Z,5.90
2018-05-29T08:29:54.892Z,5.00
2018-05-29T08:32:23.011Z,5.70
2018-05-29T08:34:51.161Z,5.17
2018-05-29T08:37:19.294Z,5.40
2018-05-29T08:39:47.412Z,5.47
2018-05-29T08:42:15.548Z,4.90
2018-05-29T08:44:43.661Z,5.70
2018-05-29T08:47:11.789Z,5.37
2018-05-29T08:49:39.902Z,5.70
2018-05-29T08:52:09.983Z,6.43
2018-05-29T08:54:38.400Z,5.80
2018-05-29T08:57:06.611Z,5.47
2018-05-29T08:59:34.760Z,5.90
2018-05-29T09:02:02.906Z,5.80
2018-05-29T09:04:31.071Z,4.93
2018-05-29T09:06:59.211Z,5.70
2018-05-29T09:09:27.378Z,5.30
2018-05-29T10:05:34.885Z,4.50
2018-05-29T10:08:03.042Z,4.90
2018-05-29T10:10:31.205Z,4.60
2018-05-29T10:12:59.408Z,3.90
2018-05-29T10:15:27.561Z,5.20
2018-05-29T10:17:55.706Z,4.77
2018-05-29T10:20:23.888Z,4.00
2018-05-29T10:22:52.069Z,4.62
2018-05-29T10:25:20.254Z,4.03
2018-05-29T10:27:48.397Z,4.50
2018-05-29T10:30:16.570Z,4.13
2018-05-29T10:32:44.728Z,5.07
2018-05-29T10:35:12.937Z,4.70
2018-05-29T10:37:41.098Z,4.07
2018-05-29T10:40:09.268Z,3.97
2018-05-29T10:42:37.857Z,4.10
2018-05-29T10:45:06.017Z,4.57
2018-05-29T10:47:34.193Z,4.80
2018-05-29T10:50:02.337Z,4.43
2018-05-29T10:52:30.509Z,4.80
2018-05-29T10:54:58.657Z,4.50
2018-05-29T10:57:26.862Z,4.60
2018-05-29T10:59:55.029Z,4.60
2018-05-29T11:02:23.178Z,5.43
2018-05-29T11:04:51.340Z,5.70
2018-05-29T11:07:20.451Z,4.70
2018-05-29T11:09:50.965Z,3.47
2018-05-29T11:12:19.101Z,3.53
2018-05-29T11:14:47.289Z,3.70
2018-05-29T11:17:16.058Z,4.07
2018-05-29T11:19:44.217Z,4.03
2018-05-29T11:22:13.370Z,4.13
2018-05-29T11:24:41.549Z,3.87
2018-05-29T11:27:11.487Z,3.90
2018-05-29T11:29:46.193Z,3.90
2018-05-29T11:32:20.610Z,4.13
2018-05-29T11:34:48.799Z,4.30
2018-05-29T11:37:16.964Z,4.20
2018-05-29T11:39:45.099Z,3.80
2018-05-29T11:42:13.650Z,3.95
2018-05-29T11:44:41.809Z,4.00
2018-05-29T11:47:09.968Z,4.40
2018-05-29T11:49:38.137Z,4.60
2018-05-29T11:54:57.569Z,4.23
2018-05-29T11:57:25.721Z,3.73
2018-05-29T11:59:53.899Z,4.40
2018-05-29T12:02:23.281Z,4.47
2018-05-29T12:04:51.449Z,3.70
2018-05-29T12:07:19.624Z,3.40
2018-05-29T12:09:50.920Z,4.17
2018-05-29T12:12:25.748Z,3.70
2018-05-29T12:14:53.915Z,3.87
2018-05-29T12:17:23.747Z,3.77
2018-05-29T12:19:51.905Z,3.90
2018-05-29T12:22:20.117Z,3.30
2018-05-29T12:24:48.317Z,3.00
2018-05-29T12:27:17.493Z,3.90
2018-05-29T12:29:45.657Z,3.50
2018-05-29T12:32:13.813Z,3.33
2018-05-29T12:34:41.969Z,3.12
2018-05-29T12:37:14.592Z,3.37
2018-05-29T12:39:42.751Z,2.60
2018-05-29T12:42:10.935Z,3.23
2018-05-29T12:44:39.125Z,3.30
2018-05-29T12:47:07.329Z,3.10
2018-05-29T12:49:35.497Z,2.53
2018-05-29T12:52:03.673Z,3.00
2018-05-29T12:54:32.706Z,3.23
2018-05-29T12:57:00.881Z,2.75
2018-05-29T12:59:29.054Z,3.03
2018-05-29T13:01:57.195Z,3.80
2018-05-29T13:04:26.343Z,3.33
2018-05-29T13:06:58.492Z,3.97
2018-05-29T13:09:26.681Z,3.60
2018-05-29T13:11:54.838Z,2.83
2018-05-29T13:14:25.785Z,3.27
2018-05-29T13:16:54.342Z,2.90
2018-05-29T13:19:22.521Z,2.87
2018-05-29T13:21:50.674Z,2.73
2018-05-29T13:24:18.817Z,3.00
2018-05-29T13:26:46.970Z,2.90
2018-05-29T13:29:15.125Z,3.17
2018-05-29T13:31:44.035Z,3.70
2018-05-29T13:34:13.649Z,2.93
2018-05-29T13:36:41.822Z,3.40
2018-05-29T13:39:14.165Z,3.80
2018-05-29T13:41:42.301Z,3.60
2018-05-29T13:44:17.245Z,3.12
2018-05-29T13:46:45.438Z,3.00
2018-05-29T13:49:13.636Z,3.27
2018-05-29T13:51:41.764Z,3.30
2018-05-29T13:54:09.935Z,3.25
2018-05-29T13:56:38.097Z,2.77
2018-05-29T13:59:06.278Z,3.20
2018-05-29T14:01:34.434Z,3.40
2018-05-29T14:04:02.629Z,3.78
2018-05-29T14:06:32.317Z,3.07
2018-05-29T14:09:01.999Z,3.00
2018-05-29T14:11:30.103Z,3.10
2018-05-29T14:13:58.262Z,3.93
2018-05-29T14:16:27.438Z,2.93
2018-05-29T14:18:55.616Z,2.90
2018-05-29T14:21:23.842Z,3.00
2018-05-29T14:23:52.000Z,2.80
2018-05-29T14:26:20.162Z,3.53
2018-05-29T14:28:48.295Z,3.27
2018-05-29T14:31:16.476Z,3.30
2018-05-29T14:33:44.650Z,3.35
2018-05-29T14:49:34.376Z,3.30
2018-05-29T14:52:04.019Z,2.90
2018-05-29T14:54:32.411Z,3.30
2018-05-29T14:57:07.096Z,3.07
2018-05-29T14:59:38.205Z,3.30
2018-05-29T15:02:10.003Z,3.07
2018-05-29T15:04:39.657Z,3.45
2018-05-29T15:07:08.881Z,3.43
2018-05-29T15:09:37.194Z,3.40
2018-05-29T15:12:06.229Z,3.40
2018-05-29T15:14:34.540Z,3.47
2018-05-29T15:17:02.868Z,3.90
2018-05-29T15:19:31.774Z,3.40
2018-05-29T15:22:02.914Z,11.00
2018-05-29T15:24:34.481Z,7.10
2018-05-29T15:27:02.793Z,3.33
2018-05-29T15:29:32.696Z,3.45
2018-05-29T15:32:02.708Z,3.72
2018-05-29T15:34:32.792Z,3.02
2018-05-29T15:37:04.503Z,3.30
2018-05-29T15:39:32.878Z,2.90
2018-05-29T15:42:02.269Z,3.40
2018-05-29T15:44:30.564Z,3.47
2018-05-29T15:47:00.652Z,3.50
2018-05-29T15:49:28.923Z,3.50
2018-05-29T15:51:57.535Z,3.70
2018-05-29T15:54:26.629Z,3.23
2018-05-29T15:56:54.892Z,3.70
2018-05-29T15:59:26.834Z,3.20
2018-05-29T16:01:55.059Z,2.90
2018-05-29T16:04:27.067Z,3.60
2018-05-29T16:06:55.496Z,3.37
2018-05-29T16:09:23.899Z,3.07
2018-05-29T16:11:53.297Z,3.45
2018-05-29T16:14:22.362Z,3.80
2018-05-29T16:16:50.737Z,3.30
2018-05-29T16:19:21.551Z,2.97
2018-05-29T16:21:49.822Z,3.30
2018-05-29T16:24:22.902Z,3.70
2018-05-29T16:26:51.215Z,3.50
2018-05-29T16:29:21.217Z,3.53
2018-05-29T16:31:50.312Z,4.47
2018-05-29T16:34:20.463Z,4.10
2018-05-29T16:36:48.753Z,3.20
2018-05-29T16:39:18.689Z,3.23
2018-05-29T16:41:48.718Z,3.37
2018-05-29T16:44:16.979Z,3.57
2018-05-29T16:46:45.234Z,3.50
2018-05-29T16:49:15.185Z,3.53
2018-05-29T16:51:44.238Z,3.10
2018-05-29T16:54:12.558Z,3.50
2018-05-29T16:56:41.594Z,4.67
2018-05-29T16:59:09.908Z,3.62
2018-05-29T17:01:38.254Z,3.50
2018-05-29T17:04:07.263Z,3.50
2018-05-29T17:06:35.758Z,3.63
2018-05-29T17:09:04.215Z,3.87
2018-05-29T17:11:33.225Z,3.90
2018-05-29T17:14:01.534Z,3.90
2018-05-29T17:16:29.820Z,4.50
2018-05-29T17:18:58.906Z,3.80
2018-05-29T17:21:29.105Z,4.03
2018-05-29T17:24:02.329Z,3.80
2018-05-29T17:26:32.337Z,3.63
2018-05-29T17:29:01.339Z,3.50
2018-05-29T17:31:30.390Z,3.60
2018-05-29T17:34:00.453Z,4.13
2018-05-29T17:36:30.975Z,3.37
2018-05-29T17:39:07.429Z,3.50
2018-05-29T17:41:39.333Z,4.20
2018-05-29T17:44:09.407Z,4.13
2018-05-29T17:46:39.351Z,3.67
2018-05-29T17:49:08.405Z,3.70
2018-05-29T17:51:37.005Z,3.60
2018-05-29T17:54:06.915Z,4.40
2018-05-29T17:56:37.139Z,3.60
2018-05-29T17:59:06.939Z,4.05
2018-05-29T18:01:37.668Z,3.90
2018-05-29T18:04:08.399Z,4.58
2018-05-29T18:06:38.051Z,3.60
2018-05-29T18:09:10.303Z,8.07
2018-05-29T18:11:47.786Z,6.30
2018-05-29T18:14:17.997Z,4.00
2018-05-29T18:16:46.368Z,3.87
2018-05-29T18:19:14.841Z,4.12
2018-05-29T18:21:45.407Z,3.57
2018-05-29T18:24:15.201Z,3.76
2018-05-29T18:26:44.414Z,4.12
2018-05-29T18:29:14.512Z,4.20
2018-05-29T18:31:45.970Z,3.60
2018-05-29T18:34:14.402Z,4.40
2018-05-29T18:36:42.727Z,4.07
2018-05-29T18:39:12.734Z,4.60
2018-05-29T18:41:41.030Z,3.97
2018-05-29T18:44:09.655Z,3.50
2018-05-29T18:46:38.046Z,3.20
2018-05-29T18:49:06.480Z,3.90
2018-05-29T18:51:34.820Z,3.80
2018-05-29T18:54:03.185Z,3.67
2018-05-29T18:56:32.280Z,3.90
2018-05-29T18:59:02.404Z,3.70
2018-05-29T19:01:31.472Z,4.13
2018-05-29T19:04:00.497Z,4.20
2018-05-29T19:06:30.639Z,3.43
2018-05-29T19:08:58.997Z,4.13
2018-05-29T19:11:29.231Z,4.10
2018-05-29T19:13:57.517Z,4.18
2018-05-29T19:16:26.547Z,3.97
2018-05-29T19:18:54.872Z,4.13
2018-05-29T19:21:28.056Z,4.67
2018-05-29T19:23:56.411Z,6.20
2018-05-29T19:26:26.460Z,5.75
2018-05-29T19:28:58.884Z,6.35
2018-05-29T19:31:28.935Z,5.90
2018-05-29T19:33:57.779Z,5.73
2018-05-29T19:36:26.128Z,5.60
2018-05-29T19:38:55.246Z,6.10
2018-05-29T19:41:23.956Z,7.37
2018-05-29T19:43:54.877Z,6.07
2018-05-29T19:46:26.671Z,5.80
2018-05-29T19:48:55.001Z,6.03
2018-05-29T19:51:23.340Z,7.67
2018-05-29T19:53:53.247Z,7.53
2018-05-29T19:56:24.860Z,6.67
2018-05-29T19:58:55.046Z,5.93
2018-05-29T20:01:23.449Z,5.80
2018-05-29T20:03:53.441Z,5.47
2018-05-29T20:06:22.574Z,6.23
2018-05-29T20:08:51.689Z,5.53
2018-05-29T20:11:27.530Z,6.70
2018-05-29T20:13:57.699Z,6.63
2018-05-29T20:16:25.978Z,6.83
2018-05-29T20:18:55.989Z,6.77
2018-05-29T20:21:26.116Z,7.67
2018-05-29T20:23:54.496Z,6.43
2018-05-29T20:26:25.647Z,6.85
2018-05-29T20:28:54.726Z,6.77
2018-05-29T20:31:23.038Z,7.10
2018-05-29T20:33:53.047Z,7.47
2018-05-29T20:36:22.123Z,6.73
2018-05-29T20:38:50.405Z,7.20
2018-05-29T20:41:20.513Z,8.20
2018-05-29T20:43:48.881Z,7.63
2018-05-29T20:46:17.144Z,7.70
2018-05-29T20:48:46.209Z,7.37
2018-05-29T20:51:16.677Z,8.10
2018-05-29T20:53:44.948Z,7.20
2018-05-29T20:56:14.793Z,7.80
2018-05-29T20:58:43.814Z,7.72
2018-05-29T21:01:12.113Z,8.20
2018-05-29T21:03:40.426Z,7.66
2018-05-29T21:06:08.865Z,8.00
2018-05-29T21:08:37.201Z,8.67
2018-05-29T21:11:05.629Z,8.70
2018-05-29T21:13:36.649Z,8.13
2018-05-29T21:16:07.983Z,8.66
2018-05-29T21:18:37.090Z,8.60
2018-05-29T21:21:06.628Z,8.10
2018-05-29T21:23:36.045Z,8.57
2018-05-29T21:26:06.947Z,8.60
2018-05-29T21:28:35.343Z,7.33
2018-05-29T21:31:05.341Z,7.20
2018-05-29T21:33:35.386Z,7.77
2018-05-29T21:36:05.235Z,7.37
2018-05-29T21:38:33.517Z,7.20
2018-05-29T21:41:04.873Z,7.37
2018-05-29T21:43:33.135Z,7.13
2018-05-29T21:46:01.483Z,6.73
2018-05-29T21:48:30.535Z,6.97
2018-05-29T21:51:00.571Z,7.50
2018-05-29T21:53:28.887Z,7.10
2018-05-29T21:55:57.155Z,6.43
2018-05-29T21:58:25.468Z,6.73
2018-05-29T22:00:54.469Z,6.90
2018-05-29T22:03:25.345Z,6.80
2018-05-29T22:05:53.708Z,7.27
2018-05-29T22:08:22.034Z,7.50
2018-05-29T22:10:50.885Z,7.20
2018-05-29T22:13:19.170Z,7.20
2018-05-29T22:15:47.503Z,7.63
2018-05-29T22:18:16.537Z,7.87
2018-05-29T22:20:45.530Z,7.20
2018-05-29T22:23:15.462Z,7.00
2018-05-29T22:25:44.554Z,6.23
2018-05-29T22:28:14.468Z,6.10
2018-05-29T22:30:44.509Z,6.30
2018-05-29T22:33:14.591Z,6.20
2018-05-29T22:35:43.611Z,6.97
2018-05-29T22:38:12.740Z,6.90
2018-05-29T22:40:43.594Z,6.50
2018-05-29T22:43:11.904Z,6.95
2018-05-29T22:45:40.225Z,7.20
2018-05-29T22:48:09.240Z,7.33
2018-05-29T22:50:37.629Z,7.20
2018-05-29T22:53:07.786Z,7.97
2018-05-29T22:55:36.049Z,7.30
2018-05-29T22:58:05.055Z,7.33
2018-05-29T23:00:34.106Z,5.90
2018-05-29T23:03:02.519Z,6.70
2018-05-29T23:05:33.343Z,6.57
2018-05-29T23:08:04.192Z,5.70
2018-05-29T23:10:39.627Z,6.23
2018-05-29T23:13:07.951Z,5.60
2018-05-29T23:15:36.206Z,5.23
2018-05-29T23:18:04.569Z,5.93
2018-05-29T23:20:32.859Z,5.13
2018-05-29T23:23:02.918Z,5.50
2018-05-29T23:25:31.183Z,5.70
2018-05-29T23:28:01.994Z,5.93
2018-05-29T23:30:30.274Z,6.40
2018-05-29T23:33:00.292Z,6.30
2018-05-29T23:35:30.414Z,5.53
2018-05-29T23:37:58.714Z,6.83
2018-05-29T23:40:27.070Z,6.70
2018-05-29T23:42:55.476Z,6.12
2018-05-29T23:45:26.354Z,6.12
2018-05-29T23:47:54.614Z,6.40
2018-05-29T23:50:26.080Z,6.40
2018-05-29T23:52:56.046Z,6.18
2018-05-29T23:55:25.040Z,7.43
2018-05-29T23:57:55.001Z,7.03
